Time;durP1;ratioP1;P1;durP2;ratioP2;P2;SDS_P1;SDS_P2;PMS_P1;PMS_P2;Temp;Humidity;BMP_temperature;BMP_pressure;BME280_temperature;BME280_humidity;BME280_pressure;Samples;Min_cycle;Max_cycle;Signal;HPM_P1;HPM_P2
2022/10/02 00:01:57;;;;;;;9.00;2.20;;;11.50;99.90;;;;;;5050900;28;20229;-50
2022/10/02 00:04:29;;;;;;;12.63;2.50;;;11.50;99.90;;;;;;5052829;28;20274;-51
2022/10/02 00:07:03;;;;;;;13.70;2.33;;;11.40;99.90;;;;;;5047406;28;20231;-52
2022/10/02 00:09:35;;;;;;;9.83;2.27;;;11.40;99.90;;;;;;5041355;28;20771;-50
2022/10/02 00:12:05;;;;;;;13.67;2.97;;;11.40;99.90;;;;;;5050812;28;20246;-50
2022/10/02 00:14:40;;;;;;;8.10;2.30;;;11.40;99.90;;;;;;5048637;28;20706;-52
2022/10/02 00:17:16;;;;;;;14.93;2.70;;;11.40;99.90;;;;;;5054310;28;20586;-52
2022/10/02 00:19:44;;;;;;;11.20;2.50;;;11.40;99.90;;;;;;5053964;28;20641;-53
2022/10/02 00:22:29;;;;;;;11.17;2.60;;;11.40;99.90;;;;;;5050670;28;20219;-52
2022/10/02 00:25:06;;;;;;;10.50;2.07;;;11.50;99.90;;;;;;5053539;28;20238;-52
2022/10/02 00:27:43;;;;;;;10.07;2.30;;;11.50;99.90;;;;;;5053505;28;20249;-52
2022/10/02 00:30:16;;;;;;;11.17;2.40;;;11.50;99.90;;;;;;5053572;28;20682;-49
2022/10/02 00:32:54;;;;;;;10.83;2.87;;;11.50;99.90;;;;;;5044168;28;20238;-52
2022/10/02 00:35:45;;;;;;;8.37;2.30;;;11.40;99.90;;;;;;5053728;28;20581;-51
2022/10/02 00:38:24;;;;;;;11.20;2.37;;;11.30;99.90;;;;;;5053836;28;20296;-52
2022/10/02 00:41:27;;;;;;;9.50;2.43;;;11.40;99.90;;;;;;5056311;28;20574;-52
2022/10/02 00:44:18;;;;;;;10.60;2.27;;;11.30;99.90;;;;;;5030824;28;20233;-51
2022/10/02 00:46:56;;;;;;;7.43;2.10;;;11.30;99.90;;;;;;5050511;28;20241;-51
2022/10/02 00:49:43;;;;;;;9.13;2.20;;;11.20;99.90;;;;;;5053199;28;20618;-49
2022/10/02 00:52:31;;;;;;;6.93;1.70;;;11.20;99.90;;;;;;5049151;28;20228;-52
2022/10/02 00:55:30;;;;;;;14.20;2.40;;;11.20;99.90;;;;;;5053331;28;20257;-52
2022/10/02 00:58:08;;;;;;;8.13;2.10;;;11.20;99.90;;;;;;5053451;28;20564;-52
2022/10/02 01:00:36;;;;;;;11.57;1.97;;;11.20;99.90;;;;;;5052887;28;20287;-49
2022/10/02 01:03:15;;;;;;;7.30;2.00;;;11.20;99.90;;;;;;5048960;28;20653;-51
2022/10/02 01:05:43;;;;;;;9.77;2.10;;;11.10;99.90;;;;;;5052531;28;20356;-49
2022/10/02 01:08:12;;;;;;;8.53;1.80;;;11.10;99.90;;;;;;5044137;28;20239;-51
2022/10/02 01:10:41;;;;;;;9.60;2.10;;;11.10;99.90;;;;;;5055648;28;20228;-52
2022/10/02 01:13:09;;;;;;;7.60;2.10;;;11.00;99.90;;;;;;5041496;28;20724;-52
2022/10/02 01:15:43;;;;;;;7.50;2.00;;;11.00;99.90;;;;;;5052496;28;20276;-52
2022/10/02 01:18:14;;;;;;;12.03;2.10;;;11.00;99.90;;;;;;5045246;28;20237;-50
2022/10/02 01:20:45;;;;;;;6.97;2.40;;;11.00;99.90;;;;;;5052536;28;20291;-50
2022/10/02 01:23:25;;;;;;;10.40;2.00;;;11.00;99.90;;;;;;5047581;28;20231;-51
2022/10/02 01:25:55;;;;;;;11.40;2.10;;;11.00;99.90;;;;;;5052863;28;20681;-52
2022/10/02 01:28:23;;;;;;;4.80;1.67;;;11.00;99.90;;;;;;5053015;28;20300;-54
2022/10/02 01:30:55;;;;;;;8.50;1.77;;;11.00;99.90;;;;;;5052629;28;20664;-52
2022/10/02 01:33:24;;;;;;;10.93;2.10;;;11.00;99.90;;;;;;5043738;28;20270;-52
2022/10/02 01:35:52;;;;;;;6.80;2.00;;;11.00;99.90;;;;;;5052523;28;20229;-52
2022/10/02 01:38:22;;;;;;;7.47;1.70;;;11.00;99.90;;;;;;5052658;28;20231;-52
2022/10/02 01:40:50;;;;;;;10.73;2.40;;;11.00;99.90;;;;;;5042354;28;20220;-49
2022/10/02 01:43:23;;;;;;;7.33;2.10;;;11.00;99.90;;;;;;5041327;28;20213;-50
2022/10/02 01:45:58;;;;;;;5.97;1.90;;;11.10;99.90;;;;;;5052518;28;20237;-52
2022/10/02 01:48:45;;;;;;;11.70;2.20;;;11.10;99.90;;;;;;5052547;28;20224;-52
2022/10/02 01:51:25;;;;;;;7.07;1.63;;;11.20;99.90;;;;;;5052470;28;20239;-51
2022/10/02 01:54:05;;;;;;;5.53;1.63;;;11.20;99.90;;;;;;5047349;28;20227;-52
2022/10/02 01:56:42;;;;;;;7.13;1.73;;;11.10;99.90;;;;;;5052061;28;20230;-49
2022/10/02 01:59:23;;;;;;;4.73;1.73;;;11.10;99.90;;;;;;5052705;28;20233;-52
2022/10/02 02:02:01;;;;;;;7.20;1.70;;;11.10;99.90;;;;;;5049143;28;20242;-52
2022/10/02 02:04:33;;;;;;;6.87;1.50;;;11.00;99.90;;;;;;5051184;28;20284;-51
2022/10/02 02:07:11;;;;;;;6.10;1.60;;;11.00;99.90;;;;;;5052516;28;20290;-51
2022/10/02 02:09:46;;;;;;;6.23;2.43;;;11.00;99.90;;;;;;5056384;28;20236;-51
2022/10/02 02:12:20;;;;;;;6.53;1.50;;;11.00;99.90;;;;;;5042993;28;20717;-51
2022/10/02 02:14:57;;;;;;;4.30;1.40;;;11.00;99.90;;;;;;5052137;28;20221;-50
2022/10/02 02:17:31;;;;;;;5.37;1.50;;;10.90;99.90;;;;;;5052435;28;20224;-51
2022/10/02 02:20:02;;;;;;;5.33;2.10;;;10.90;99.90;;;;;;5052165;28;20682;-51
2022/10/02 02:22:34;;;;;;;6.17;1.53;;;10.90;99.90;;;;;;5043901;28;20275;-51
2022/10/02 02:25:06;;;;;;;6.57;1.40;;;10.90;99.90;;;;;;5050900;28;20236;-49
2022/10/02 02:27:39;;;;;;;4.27;1.47;;;10.80;99.90;;;;;;5045812;28;20231;-49
2022/10/02 02:30:11;;;;;;;6.17;1.63;;;10.90;99.90;;;;;;5038139;28;20237;-52
2022/10/02 02:32:43;;;;;;;5.17;1.43;;;10.80;99.90;;;;;;5041660;28;20249;-50
2022/10/02 02:35:16;;;;;;;7.47;1.57;;;10.90;99.90;;;;;;5056003;28;20229;-49
2022/10/02 02:37:47;;;;;;;8.90;1.83;;;10.90;99.90;;;;;;5055967;28;20229;-50
2022/10/02 02:40:19;;;;;;;5.17;1.97;;;11.00;99.90;;;;;;5061047;28;20222;-52
2022/10/02 02:42:52;;;;;;;10.40;2.07;;;11.00;99.90;;;;;;5046302;28;20626;-51
2022/10/02 02:45:25;;;;;;;5.17;1.70;;;11.10;99.90;;;;;;5055566;28;20231;-52
2022/10/02 02:47:55;;;;;;;6.77;2.00;;;11.10;99.90;;;;;;5054090;28;20283;-50
2022/10/02 02:50:29;;;;;;;7.27;2.00;;;11.20;99.90;;;;;;5036059;28;20703;-49
2022/10/02 02:53:00;;;;;;;7.53;2.03;;;11.10;99.90;;;;;;5042384;28;20237;-51
2022/10/02 02:55:33;;;;;;;5.73;1.70;;;11.20;99.90;;;;;;5055258;28;20222;-53
2022/10/02 02:58:07;;;;;;;8.63;2.50;;;11.20;99.90;;;;;;5055338;28;20232;-51
2022/10/02 03:00:36;;;;;;;5.80;2.20;;;11.20;99.90;;;;;;5054305;28;20228;-51
2022/10/02 03:03:05;;;;;;;6.63;2.07;;;11.20;99.90;;;;;;5054705;28;20238;-52
2022/10/02 03:05:35;;;;;;;5.87;1.80;;;11.20;99.90;;;;;;5055027;28;20271;-52
2022/10/02 03:08:06;;;;;;;7.40;2.27;;;11.20;99.90;;;;;;5055428;28;20751;-50
2022/10/02 03:10:44;;;;;;;6.67;1.83;;;11.20;99.90;;;;;;5060561;28;20319;-54
2022/10/02 03:13:28;;;;;;;8.33;2.10;;;11.30;99.90;;;;;;5043043;28;20212;-51
2022/10/02 03:16:10;;;;;;;7.07;2.30;;;11.30;99.90;;;;;;5055235;28;20620;-51
2022/10/02 03:18:58;;;;;;;7.37;2.40;;;11.30;99.90;;;;;;5055077;28;20221;-52
2022/10/02 03:21:34;;;;;;;7.57;1.87;;;11.30;99.90;;;;;;5055115;28;20221;-49
2022/10/02 03:24:10;;;;;;;6.20;1.90;;;11.20;99.90;;;;;;5045286;28;20219;-50
2022/10/02 03:26:43;;;;;;;8.17;2.00;;;11.10;99.90;;;;;;5040753;28;20238;-52
2022/10/02 03:29:17;;;;;;;6.40;2.33;;;11.10;99.90;;;;;;5044082;28;20271;-51
2022/10/02 03:31:47;;;;;;;8.00;2.33;;;11.10;99.90;;;;;;5042020;28;20242;-51
2022/10/02 03:34:17;;;;;;;5.83;2.03;;;11.00;99.90;;;;;;5045449;28;20283;-51
2022/10/02 03:36:46;;;;;;;6.13;1.93;;;11.00;99.90;;;;;;5045486;28;20230;-51
2022/10/02 03:39:14;;;;;;;7.60;2.20;;;10.90;99.90;;;;;;5045394;28;20253;-51
2022/10/02 03:41:58;;;;;;;9.07;2.20;;;10.90;99.90;;;;;;5045149;28;20716;-53
2022/10/02 03:44:26;;;;;;;8.00;2.33;;;10.90;99.90;;;;;;5048431;28;20230;-51
2022/10/02 03:46:55;;;;;;;10.67;2.20;;;10.80;99.90;;;;;;5046895;28;20229;-52
2022/10/02 03:49:23;;;;;;;9.30;2.73;;;10.80;99.90;;;;;;5054625;28;20236;-49
2022/10/02 03:51:51;;;;;;;4.63;2.30;;;10.80;99.90;;;;;;5052768;28;20282;-51
2022/10/02 03:54:21;;;;;;;5.70;2.03;;;10.70;99.90;;;;;;5052275;28;20224;-52
2022/10/02 03:56:54;;;;;;;3.43;1.97;;;10.80;99.90;;;;;;5053943;28;20232;-50
2022/10/02 03:59:34;;;;;;;10.37;3.63;;;10.70;99.90;;;;;;5054291;28;20231;-51
2022/10/02 04:02:11;;;;;;;5.93;2.23;;;10.80;99.90;;;;;;5051194;28;20256;-50
2022/10/02 04:04:46;;;;;;;10.90;2.67;;;10.80;99.90;;;;;;5050985;28;20220;-51
2022/10/02 04:07:21;;;;;;;11.40;2.63;;;10.80;99.90;;;;;;5041668;28;20220;-50
2022/10/02 04:09:58;;;;;;;8.93;2.37;;;10.70;99.90;;;;;;5056442;28;20596;-51
2022/10/02 04:12:31;;;;;;;7.87;2.73;;;10.80;99.90;;;;;;5046270;28;20287;-52
2022/10/02 04:15:05;;;;;;;7.53;2.57;;;10.70;99.90;;;;;;5048807;28;20627;-51
2022/10/02 04:17:43;;;;;;;7.63;2.63;;;10.80;99.90;;;;;;5040544;28;20226;-53
2022/10/02 04:20:16;;;;;;;8.50;2.43;;;10.80;99.90;;;;;;5052841;28;20636;-52
2022/10/02 04:22:49;;;;;;;10.37;2.57;;;10.80;99.90;;;;;;5039969;28;20225;-51
2022/10/02 04:25:20;;;;;;;10.23;2.57;;;10.80;99.90;;;;;;5046618;28;20224;-51
2022/10/02 04:27:52;;;;;;;6.70;2.63;;;10.80;99.90;;;;;;5053496;28;20242;-50
2022/10/02 04:30:20;;;;;;;9.23;2.77;;;10.90;99.90;;;;;;5053441;28;20282;-53
2022/10/02 04:32:50;;;;;;;6.03;2.40;;;10.90;99.90;;;;;;5048922;28;20227;-50
2022/10/02 04:35:28;;;;;;;4.93;2.50;;;10.80;99.90;;;;;;5053325;28;20231;-49
2022/10/02 04:38:21;;;;;;;9.33;2.73;;;10.90;99.90;;;;;;5053239;28;20939;-52
2022/10/02 04:41:02;;;;;;;8.27;2.43;;;11.00;99.90;;;;;;5053214;28;20674;-52
2022/10/02 04:43:53;;;;;;;7.93;2.93;;;10.90;99.90;;;;;;5044674;28;20231;-53
2022/10/02 04:46:46;;;;;;;8.63;2.40;;;10.90;99.90;;;;;;5047003;28;20226;-51
2022/10/02 04:49:48;;;;;;;7.40;2.97;;;10.80;99.90;;;;;;5045785;28;20224;-49
2022/10/02 04:52:27;;;;;;;5.03;2.37;;;10.80;99.90;;;;;;5066336;28;20838;-50
2022/10/02 04:55:09;;;;;;;7.67;2.97;;;10.80;99.90;;;;;;5051430;28;20723;-49
2022/10/02 04:57:53;;;;;;;9.47;3.43;;;10.80;99.90;;;;;;5052924;28;20242;-50
2022/10/02 05:00:23;;;;;;;7.40;2.50;;;10.80;99.90;;;;;;5052546;28;20253;-49
2022/10/02 05:03:15;;;;;;;6.47;2.60;;;10.80;99.90;;;;;;5057944;28;20258;-51
2022/10/02 05:05:58;;;;;;;7.50;3.13;;;10.80;99.90;;;;;;5056118;28;20222;-51
2022/10/02 05:08:41;;;;;;;8.17;2.77;;;10.80;99.90;;;;;;5052265;28;20586;-49
2022/10/02 05:11:28;;;;;;;9.00;3.27;;;10.80;99.90;;;;;;5055134;28;20255;-52
2022/10/02 05:14:22;;;;;;;5.50;2.53;;;10.80;99.90;;;;;;5046611;28;20232;-53
2022/10/02 05:17:04;;;;;;;11.30;3.07;;;10.80;99.90;;;;;;5053236;28;20234;-51
2022/10/02 05:19:59;;;;;;;9.43;3.13;;;10.80;99.90;;;;;;5052598;28;20238;-52
2022/10/02 05:22:46;;;;;;;12.07;3.20;;;10.80;99.90;;;;;;5048888;28;20230;-52
2022/10/02 05:25:36;;;;;;;7.93;3.23;;;10.80;99.90;;;;;;5046153;28;20228;-52
2022/10/02 05:28:30;;;;;;;8.47;3.03;;;10.90;99.90;;;;;;5052773;28;20227;-53
2022/10/02 05:31:08;;;;;;;11.43;3.67;;;11.00;99.90;;;;;;5052520;28;20233;-52
2022/10/02 05:33:56;;;;;;;9.50;3.27;;;11.00;99.90;;;;;;5042342;28;20253;-52
2022/10/02 05:36:51;;;;;;;10.47;3.90;;;11.00;99.90;;;;;;5046515;28;20224;-52
2022/10/02 05:39:26;;;;;;;8.00;3.33;;;11.10;99.90;;;;;;5040794;28;20233;-52
2022/10/02 05:42:01;;;;;;;10.00;3.50;;;11.10;99.90;;;;;;5048905;28;20225;-50
2022/10/02 05:44:36;;;;;;;10.57;3.40;;;11.10;99.90;;;;;;5051331;28;20708;-52
2022/10/02 05:47:11;;;;;;;13.27;4.20;;;11.20;99.90;;;;;;5052559;28;20593;-52
2022/10/02 05:49:43;;;;;;;9.87;3.63;;;11.20;99.90;;;;;;5052232;28;20241;-53
2022/10/02 05:52:16;;;;;;;9.90;3.60;;;11.30;99.90;;;;;;5047404;28;20233;-52
2022/10/02 05:54:52;;;;;;;7.70;3.20;;;11.20;99.90;;;;;;5041458;28;20246;-52
2022/10/02 05:57:26;;;;;;;10.70;3.10;;;11.30;99.90;;;;;;5052138;28;20279;-52
2022/10/02 06:00:03;;;;;;;6.30;2.67;;;11.20;99.90;;;;;;5052428;28;20243;-52
2022/10/02 06:02:45;;;;;;;5.23;3.23;;;11.20;99.90;;;;;;5040699;28;20284;-52
2022/10/02 06:05:18;;;;;;;7.10;2.80;;;11.30;99.90;;;;;;5044391;28;20228;-53
2022/10/02 06:07:50;;;;;;;8.33;2.67;;;11.30;99.90;;;;;;5054179;28;20628;-52
2022/10/02 06:10:26;;;;;;;6.87;2.23;;;11.20;99.90;;;;;;5061776;28;20226;-52
2022/10/02 06:13:01;;;;;;;6.57;2.07;;;11.20;99.90;;;;;;5053656;28;20223;-50
2022/10/02 06:15:34;;;;;;;6.30;2.33;;;11.20;99.90;;;;;;5055929;28;20227;-52
2022/10/02 06:18:07;;;;;;;5.63;2.13;;;11.20;99.90;;;;;;5056564;28;20277;-52
2022/10/02 06:20:41;;;;;;;4.10;2.00;;;11.20;99.90;;;;;;5056452;28;20640;-51
2022/10/02 06:23:13;;;;;;;6.77;2.03;;;11.20;99.90;;;;;;5060648;28;20687;-51
2022/10/02 06:25:47;;;;;;;8.53;2.27;;;11.10;99.90;;;;;;5051661;28;20228;-52
2022/10/02 06:28:21;;;;;;;7.90;2.03;;;11.10;99.90;;;;;;5048910;28;20238;-53
2022/10/02 06:30:55;;;;;;;7.67;2.60;;;11.00;99.90;;;;;;5055535;28;20685;-51
2022/10/02 06:33:25;;;;;;;8.70;3.07;;;11.00;99.90;;;;;;5046890;28;20246;-52
2022/10/02 06:36:13;;;;;;;7.17;2.70;;;11.00;99.90;;;;;;5052242;28;20219;-51
2022/10/02 06:38:59;;;;;;;7.30;2.70;;;11.00;99.90;;;;;;5055363;28;20226;-52
2022/10/02 06:41:37;;;;;;;7.50;2.50;;;11.10;99.90;;;;;;5060756;28;20325;-51
2022/10/02 06:44:16;;;;;;;4.73;2.63;;;11.30;99.90;;;;;;5052443;28;20237;-52
2022/10/02 06:46:52;;;;;;;5.27;2.30;;;11.40;99.90;;;;;;5054875;28;20231;-52
2022/10/02 06:49:31;;;;;;;7.37;2.97;;;11.50;99.90;;;;;;5055849;28;20619;-52
2022/10/02 06:52:09;;;;;;;8.70;2.83;;;11.70;99.90;;;;;;5057821;28;20233;-52
2022/10/02 06:54:56;;;;;;;9.23;3.10;;;11.80;99.90;;;;;;5051293;28;20701;-52
2022/10/02 06:57:38;;;;;;;8.33;2.90;;;11.90;99.90;;;;;;5049033;28;20748;-51
2022/10/02 07:00:12;;;;;;;5.87;2.53;;;12.00;99.90;;;;;;5046178;28;20222;-52
2022/10/02 07:02:59;;;;;;;8.03;3.23;;;11.90;99.90;;;;;;5044505;28;20234;-52
2022/10/02 07:05:53;;;;;;;5.87;2.50;;;11.90;99.90;;;;;;5049368;28;20628;-50
2022/10/02 07:08:36;;;;;;;5.80;2.93;;;12.00;99.90;;;;;;5048771;28;20223;-52
2022/10/02 07:11:15;;;;;;;7.80;2.63;;;12.40;99.90;;;;;;5060608;28;20638;-52
2022/10/02 07:13:57;;;;;;;9.80;2.60;;;12.60;99.90;;;;;;5045285;28;20233;-53
2022/10/02 07:16:41;;;;;;;8.13;3.07;;;12.90;99.90;;;;;;5048112;28;20230;-52
2022/10/02 07:19:41;;;;;;;7.30;2.80;;;13.00;99.90;;;;;;5048206;28;20710;-51
2022/10/02 07:22:25;;;;;;;7.83;2.40;;;12.80;99.90;;;;;;5041352;28;20715;-53
2022/10/02 07:25:39;;;;;;;7.60;2.50;;;12.60;99.90;;;;;;5046681;28;20219;-53
2022/10/02 07:28:17;;;;;;;7.60;2.30;;;12.50;99.90;;;;;;5054629;28;20245;-52
2022/10/02 07:30:56;;;;;;;7.40;2.53;;;12.40;99.90;;;;;;5054355;28;20297;-51
2022/10/02 07:33:36;;;;;;;7.67;2.30;;;12.30;99.90;;;;;;5044711;28;20268;-52
2022/10/02 07:36:10;;;;;;;6.53;2.47;;;12.30;99.90;;;;;;5047646;28;20296;-51
2022/10/02 07:39:01;;;;;;;6.27;2.37;;;12.30;99.90;;;;;;5046312;28;20222;-52
2022/10/02 07:42:01;;;;;;;7.10;2.33;;;12.30;99.90;;;;;;5051335;28;20685;-52
2022/10/02 07:44:48;;;;;;;7.63;2.30;;;12.30;99.90;;;;;;5049905;28;20706;-50
2022/10/02 07:47:31;;;;;;;7.43;2.87;;;12.30;99.90;;;;;;5046869;28;20913;-52
2022/10/02 07:50:06;;;;;;;9.17;2.60;;;12.30;99.90;;;;;;5045528;28;20230;-50
2022/10/02 07:52:45;;;;;;;8.07;2.57;;;12.40;99.90;;;;;;5042319;28;20232;-51
2022/10/02 07:55:18;;;;;;;11.07;2.70;;;12.50;99.90;;;;;;5046815;28;20235;-52
2022/10/02 07:57:59;;;;;;;7.17;2.67;;;12.70;99.90;;;;;;5044331;28;20233;-53
2022/10/02 08:00:32;;;;;;;6.87;2.23;;;13.00;99.90;;;;;;5041607;28;20288;-52
2022/10/02 08:03:06;;;;;;;9.83;2.97;;;13.20;99.90;;;;;;5043100;28;20234;-53
2022/10/02 08:05:38;;;;;;;10.20;3.23;;;13.50;99.90;;;;;;5043176;28;20223;-53
2022/10/02 08:08:16;;;;;;;12.50;3.03;;;13.40;99.90;;;;;;5042446;28;20238;-53
2022/10/02 08:10:50;;;;;;;11.80;3.43;;;13.40;99.90;;;;;;5039581;28;20620;-52
2022/10/02 08:13:23;;;;;;;10.33;3.40;;;13.50;99.90;;;;;;5043392;28;20640;-52
2022/10/02 08:15:54;;;;;;;9.50;2.93;;;13.60;99.90;;;;;;5046324;28;21170;-53
2022/10/02 08:18:29;;;;;;;11.00;2.80;;;13.60;99.90;;;;;;5046125;28;20243;-51
2022/10/02 08:21:04;;;;;;;8.63;3.33;;;13.70;99.90;;;;;;5048619;28;20759;-50
2022/10/02 08:23:39;;;;;;;8.83;3.40;;;13.90;99.90;;;;;;5050134;28;20242;-52
2022/10/02 08:26:12;;;;;;;9.27;3.50;;;14.20;99.90;;;;;;5053625;28;20216;-52
2022/10/02 08:28:44;;;;;;;11.53;3.23;;;14.60;99.90;;;;;;5052989;28;20282;-53
2022/10/02 08:31:14;;;;;;;10.10;3.43;;;14.60;99.90;;;;;;5053437;28;20246;-53
2022/10/02 08:33:44;;;;;;;8.43;2.73;;;14.40;99.90;;;;;;5044001;28;20243;-52
2022/10/02 08:36:53;;;;;;;8.27;2.93;;;14.50;99.90;;;;;;5045726;28;20293;-52
2022/10/02 08:40:07;;;;;;;12.43;3.37;;;14.60;99.90;;;;;;5040502;28;20234;-52
2022/10/02 08:43:08;;;;;;;9.67;2.73;;;15.10;99.90;;;;;;5035908;28;20240;-53
2022/10/02 08:46:18;;;;;;;13.10;2.43;;;15.40;99.90;;;;;;5022363;28;20228;-52
2022/10/02 08:49:24;;;;;;;10.80;2.47;;;15.20;99.90;;;;;;5045670;28;20700;-53
2022/10/02 08:52:16;;;;;;;10.70;2.40;;;15.10;99.90;;;;;;5043455;28;20679;-53
2022/10/02 08:55:30;;;;;;;9.30;2.70;;;14.90;99.90;;;;;;5039204;28;20623;-53
2022/10/02 08:58:26;;;;;;;13.30;2.80;;;14.60;99.90;;;;;;5050578;28;20233;-52
2022/10/02 09:01:06;;;;;;;9.53;2.40;;;14.40;99.90;;;;;;5011514;28;20294;-53
2022/10/02 09:04:09;;;;;;;13.97;2.87;;;14.30;99.90;;;;;;5039901;28;20226;-52
2022/10/02 09:07:25;;;;;;;12.07;3.33;;;14.20;99.90;;;;;;5021435;28;20227;-52
2022/10/02 09:10:33;;;;;;;8.90;2.40;;;14.30;99.90;;;;;;5040991;28;20284;-53
2022/10/02 09:13:41;;;;;;;12.73;2.57;;;14.60;99.90;;;;;;5042318;28;20219;-53
2022/10/02 09:16:11;;;;;;;10.60;2.70;;;14.80;99.90;;;;;;5034412;28;20820;-52
2022/10/02 09:18:54;;;;;;;9.07;2.60;;;14.80;99.90;;;;;;5037037;28;20227;-51
2022/10/02 09:21:53;;;;;;;11.53;2.20;;;15.20;99.90;;;;;;5039238;28;20238;-51
2022/10/02 09:25:03;;;;;;;10.47;2.00;;;15.60;99.90;;;;;;5038385;28;20609;-53
2022/10/02 09:28:03;;;;;;;13.20;1.93;;;15.80;99.90;;;;;;5016745;28;20220;-53
2022/10/02 09:31:07;;;;;;;7.67;1.90;;;15.50;99.90;;;;;;5043658;28;20228;-54
2022/10/02 09:34:07;;;;;;;9.53;1.90;;;15.10;99.90;;;;;;5019112;28;20231;-54
2022/10/02 09:38:13;;;;;;;12.63;2.23;;;14.80;99.90;;;;;;5038027;28;20284;-53
2022/10/02 09:42:01;;;;;;;9.07;2.27;;;14.60;99.90;;;;;;5042039;28;20282;-54
2022/10/02 09:45:24;;;;;;;5.83;1.70;;;14.50;99.90;;;;;;5042266;28;20225;-53
2022/10/02 09:48:36;;;;;;;9.70;2.60;;;14.40;99.90;;;;;;5708450;23;20203;31
2022/10/02 09:51:59;;;;;;;8.27;2.33;;;14.30;99.90;;;;;;4924480;29;20267;-53
2022/10/02 09:55:06;;;;;;;7.93;1.80;;;14.20;99.90;;;;;;4929377;29;20209;-53
2022/10/02 09:58:10;;;;;;;11.13;2.10;;;14.10;99.90;;;;;;4932006;29;20807;-53
2022/10/02 10:01:01;;;;;;;7.30;1.53;;;14.10;99.90;;;;;;4931430;28;20298;-52
2022/10/02 10:04:07;;;;;;;5.40;1.53;;;14.50;99.90;;;;;;4927225;28;20656;-52
2022/10/02 10:07:06;;;;;;;8.03;1.97;;;15.10;99.90;;;;;;4930634;29;20770;-53
2022/10/02 10:10:09;;;;;;;7.47;1.90;;;15.40;99.90;;;;;;4930736;29;20235;-53
2022/10/02 10:13:06;;;;;;;7.70;1.60;;;15.70;99.90;;;;;;4926374;29;20238;-54
2022/10/02 10:16:11;;;;;;;5.00;1.60;;;16.00;99.90;;;;;;4931650;29;20801;-54
2022/10/02 10:19:18;;;;;;;8.37;1.97;;;16.30;99.90;;;;;;4931183;29;20302;-54
2022/10/02 10:22:16;;;;;;;5.43;1.70;;;16.90;99.90;;;;;;4928381;29;20627;-53
2022/10/02 10:25:35;;;;;;;4.20;1.50;;;17.40;99.90;;;;;;4929129;29;20255;-53
2022/10/02 10:28:36;;;;;;;6.67;1.67;;;17.60;99.90;;;;;;4930570;29;20227;-54
2022/10/02 10:31:43;;;;;;;8.37;1.93;;;17.70;99.90;;;;;;4930596;28;20251;-53
2022/10/02 10:34:48;;;;;;;6.47;1.70;;;17.50;99.90;;;;;;4932161;29;20721;-53
2022/10/02 10:40:37;;;;;;;8.77;2.20;;;17.60;99.90;;;;;;4931575;29;20237;-53
2022/10/02 10:43:46;;;;;;;7.53;1.90;;;17.50;99.90;;;;;;4932158;29;20231;-54
2022/10/02 10:46:42;;;;;;;6.40;1.90;;;17.40;99.90;;;;;;4932400;29;20232;-54
2022/10/02 10:50:07;;;;;;;5.63;1.70;;;17.60;99.90;;;;;;4951836;28;20244;-54
2022/10/02 10:53:03;;;;;;;6.83;1.77;;;18.00;99.90;;;;;;4925237;29;20237;-54
2022/10/02 10:55:50;;;;;;;11.60;2.00;;;18.20;99.90;;;;;;4929803;29;20232;-54
2022/10/02 10:58:25;;;;;;;8.80;1.77;;;17.40;99.90;;;;;;4962617;28;20261;-54
2022/10/02 11:01:06;;;;;;;9.07;1.83;;;16.70;99.90;;;;;;4970990;28;20231;-54
2022/10/02 11:04:13;;;;;;;7.37;2.17;;;16.20;99.90;;;;;;4968733;28;20694;-54
2022/10/02 11:07:06;;;;;;;8.10;1.77;;;15.90;99.90;;;;;;4942508;28;20222;-54
2022/10/02 11:10:15;;;;;;;9.20;2.00;;;16.00;99.90;;;;;;4964795;28;20242;-53
2022/10/02 11:13:04;;;;;;;5.67;1.60;;;16.30;99.90;;;;;;4972112;28;20230;-54
2022/10/02 11:15:58;;;;;;;7.67;2.00;;;16.30;99.90;;;;;;4972382;28;20642;-54
2022/10/02 11:18:47;;;;;;;6.60;2.17;;;16.20;99.90;;;;;;4974553;28;20559;-52
2022/10/02 11:21:42;;;;;;;7.43;2.60;;;16.00;99.90;;;;;;4933505;28;20686;-53
2022/10/02 11:24:33;;;;;;;9.23;2.17;;;15.80;99.90;;;;;;4957610;28;20235;-52
2022/10/02 11:27:19;;;;;;;6.53;1.50;;;15.70;99.90;;;;;;4957063;29;20228;-54
2022/10/02 11:30:05;;;;;;;9.17;2.20;;;15.50;99.90;;;;;;4957463;28;20219;-54
2022/10/02 11:32:58;;;;;;;7.27;1.77;;;15.60;99.90;;;;;;4967656;28;20241;-54
2022/10/02 11:35:41;;;;;;;8.93;2.10;;;16.10;99.90;;;;;;4972799;28;20293;-53
2022/10/02 11:38:34;;;;;;;7.47;1.97;;;16.60;99.90;;;;;;4975623;28;20235;-54
2022/10/02 11:41:19;;;;;;;5.67;1.90;;;17.10;99.90;;;;;;4967378;28;20241;-53
2022/10/02 11:44:10;;;;;;;7.37;2.00;;;17.30;99.90;;;;;;4973318;28;20732;-54
2022/10/02 11:47:00;;;;;;;9.27;2.20;;;17.40;99.90;;;;;;4973255;28;20623;-54
2022/10/02 11:50:13;;;;;;;8.30;1.60;;;17.30;99.90;;;;;;4972077;28;20327;-54
2022/10/02 11:53:10;;;;;;;12.40;2.33;;;17.40;99.90;;;;;;4907946;29;20241;-54
2022/10/02 11:55:52;;;;;;;10.90;2.13;;;17.40;99.90;;;;;;4971332;28;20262;-54
2022/10/02 11:58:32;;;;;;;6.87;1.87;;;17.00;99.90;;;;;;4968846;28;20313;-56
2022/10/02 12:01:16;;;;;;;8.57;2.00;;;16.50;99.90;;;;;;4973107;28;20597;-54
2022/10/02 12:04:04;;;;;;;7.60;2.00;;;16.10;99.90;;;;;;4970132;28;20235;-54
2022/10/02 12:06:48;;;;;;;7.50;1.83;;;15.80;99.90;;;;;;4974961;28;20575;-54
2022/10/02 12:09:24;;;;;;;7.57;2.03;;;15.70;99.90;;;;;;4961276;28;20634;-53
2022/10/02 12:12:06;;;;;;;9.30;1.90;;;15.50;99.90;;;;;;4952767;28;20238;-53
2022/10/02 12:14:42;;;;;;;8.00;1.70;;;15.40;99.90;;;;;;4952016;28;20227;-53
2022/10/02 12:17:26;;;;;;;7.40;1.60;;;15.30;99.90;;;;;;4952674;28;20226;-54
2022/10/02 12:29:00;;;;;;;6.97;1.83;;;15.00;99.90;;;;;;4951585;28;20610;-53
2022/10/02 12:31:35;;;;;;;7.23;2.00;;;15.20;99.90;;;;;;4951839;28;20245;-54
2022/10/02 12:34:12;;;;;;;11.47;2.30;;;15.20;99.90;;;;;;4951637;28;20674;-53
2022/10/02 12:36:57;;;;;;;13.43;2.37;;;15.30;99.90;;;;;;4952307;28;20715;-54
2022/10/02 12:39:37;;;;;;;9.47;2.00;;;15.40;99.90;;;;;;4954238;28;20672;-52
2022/10/02 12:42:33;;;;;;;12.13;2.60;;;15.50;99.90;;;;;;4952937;28;20246;-54
2022/10/02 12:45:37;;;;;;;9.33;2.33;;;15.50;99.90;;;;;;4951331;28;20247;-53
2022/10/02 12:48:18;;;;;;;7.20;2.10;;;15.50;99.90;;;;;;4951638;28;20219;-53
2022/10/02 12:51:15;;;;;;;11.10;2.30;;;15.60;99.90;;;;;;4951972;28;20571;-53
2022/10/02 12:54:28;;;;;;;10.73;2.20;;;15.80;99.90;;;;;;4952691;28;20784;-53
2022/10/02 13:00:22;;;;;;;10.97;2.40;;;15.90;99.90;;;;;;4974026;28;20226;-54
2022/10/02 13:03:28;;;;;;;9.17;2.00;;;15.80;99.90;;;;;;4969992;28;20694;-54
2022/10/02 13:06:25;;;;;;;10.87;2.30;;;15.80;99.90;;;;;;4970440;28;20227;-54
2022/10/02 13:09:04;;;;;;;10.87;2.20;;;15.80;99.90;;;;;;4955510;28;20625;-54
2022/10/02 13:11:44;;;;;;;12.53;2.37;;;15.80;99.90;;;;;;4964640;28;20693;-53
2022/10/02 13:14:32;;;;;;;14.77;2.30;;;15.90;99.90;;;;;;4959264;28;20230;-53
2022/10/02 13:17:13;;;;;;;10.90;2.70;;;15.90;99.90;;;;;;4969238;28;20578;-54
2022/10/02 13:19:52;;;;;;;10.40;2.53;;;16.00;99.90;;;;;;4970096;28;20234;-54
2022/10/02 13:22:32;;;;;;;16.37;2.90;;;16.20;99.90;;;;;;4971775;28;20230;-54
2022/10/02 13:25:23;;;;;;;9.53;2.10;;;16.20;99.90;;;;;;4973414;28;20686;-54
2022/10/02 13:28:06;;;;;;;14.33;2.47;;;16.30;99.90;;;;;;4974284;28;20556;-54
2022/10/02 13:30:42;;;;;;;11.60;2.50;;;16.30;99.90;;;;;;4964397;28;20289;-54
2022/10/02 13:33:30;;;;;;;8.33;2.07;;;16.30;99.90;;;;;;4965648;28;20222;-54
2022/10/02 13:36:11;;;;;;;12.30;2.27;;;16.20;99.90;;;;;;4970273;28;20714;-54
2022/10/02 13:39:08;;;;;;;10.83;2.13;;;16.20;99.90;;;;;;4966575;28;20254;-53
2022/10/02 13:41:53;;;;;;;10.57;2.17;;;16.10;99.90;;;;;;4966690;28;20317;-54
2022/10/02 13:44:32;;;;;;;14.87;2.07;;;16.10;99.90;;;;;;4970030;28;20226;-54
2022/10/02 13:47:21;;;;;;;8.33;2.60;;;15.90;99.90;;;;;;4973285;28;20218;-54
2022/10/02 13:50:12;;;;;;;13.07;2.40;;;15.90;99.90;;;;;;4970966;28;20237;-53
2022/10/02 13:53:10;;;;;;;8.57;2.33;;;15.90;99.90;;;;;;4968351;28;20231;-54
2022/10/02 13:55:43;;;;;;;9.83;2.43;;;15.90;99.90;;;;;;4969640;28;20618;-53
2022/10/02 13:58:29;;;;;;;11.57;2.53;;;15.90;99.90;;;;;;4968517;28;20223;-54
2022/10/02 14:01:08;;;;;;;9.37;2.10;;;16.00;99.90;;;;;;4971564;28;20234;-54
2022/10/02 14:03:49;;;;;;;11.50;2.07;;;16.00;99.90;;;;;;4971686;28;20230;-53
2022/10/02 14:06:23;;;;;;;11.80;3.00;;;16.00;99.90;;;;;;4971778;28;20578;-53
2022/10/02 14:09:04;;;;;;;10.50;2.20;;;15.90;99.90;;;;;;4970744;28;20708;-54
2022/10/02 14:11:46;;;;;;;10.67;1.83;;;15.80;99.90;;;;;;4972961;28;20234;-54
2022/10/02 14:14:25;;;;;;;7.93;1.80;;;15.70;99.90;;;;;;4970434;28;20759;-54
2022/10/02 14:17:03;;;;;;;13.83;2.97;;;15.70;99.90;;;;;;4968074;28;20669;-54
2022/10/02 14:19:51;;;;;;;12.67;2.33;;;15.70;99.90;;;;;;4969635;28;20236;-54
2022/10/02 14:22:37;;;;;;;12.00;2.50;;;15.70;99.90;;;;;;4971837;28;20651;-54